Wausa, NE

2:33 PM CDT on May 05, 2015 (GMT -0500)
Stefan Memorial | | Change Station
CLOSE
Current Station
Airport
Location: Norfolk,
Elevation: 1549 ft
Nearby Weather Stations

Elev 1549 ft 41.99 °N, 97.44 °W | Updated 22 minutes ago

Overcast
Overcast
71 °F
Feels Like 71 °F
N
13
Wind Variable Wind from SSE

Today
High -- | Low -- °F
--% Chance of Precip.
Yesterday
High -- | Low -- °F
Precip. -- in
6:20 AM 8:34 PM
Full, 97% visible
Pressure 30.03 in
Visibility 10.0 miles
Clouds Few 2300 ft
Scattered Clouds 9000 ft
Dew Point 61 °F
Humidity 70%
Rainfall 0.14 in
Snow Depth Not available.
UV 8 out of 12
Pollen 6.40 out of 12
Air Quality Not available.
Flu Activity Local Activity
SPECI KOFK 051911Z AUTO 16011KT 10SM FEW023 SCT090 22/16 A3003 RMK AO2 T02170161

More Conditions Fewer Conditions

Pressure 30.03 in
Visibility 10.0 miles
Clouds Few 2300 ft
Scattered Clouds 9000 ft
Dew Point 61 °F
Humidity 70%
Rainfall 0.14 in
Snow Depth Not available.
UV 8 out of 12
Pollen 6.40 out of 12
Air Quality Not available.
Flu Activity Local Activity
SPECI KOFK 051911Z AUTO 16011KT 10SM FEW023 SCT090 22/16 A3003 RMK AO2 T02170161

More Conditions Fewer Conditions

10-Day Weather Forecast

Almanac

Astronomy

May. 05, 2015 Rise Set
Actual Time
Civil Twilight
Nautical Twilight
Astronomical Twilight
Moon
Length of Visible Light
Length of Day
Tomorrow will be .
, % of the Moon is Illuminated

Today's Extremes

State Highs State Lows

Community

WunderPhotos

Upload Photos

1,818,957 photos uploaded!

WunderBlogs® & News

Nearby

Air Quality

  Air Quality AQ Index Pollutant
Not available.

Snow Depth

Station Depth Elevation

Earthquake Activity

City Distance Mag. Time & Date
Minimum magnitude displayed is 2.5.

Coastal Water Temperatures

Place Temperature

Stations

Nearby Weather Stations

Station Location Temp. Windchill Dew Point Humidity Wind Precip. Elev Updated Type